Durango Ski Resort, Colorado Weather observations

Data are for observation ending at time listed.
 Day   Time    Ave.   Ave.  Ave.  Vector   Max.    Total    Solar   Ave.  
  of    of     Air    Rel.  Wind   Wind    Wind   Precip.   Rad.    Soil  
Year   Day     Temp.  Hum.  Speed  Dir.    Gust                     Temp. 
2016   (PST)    F      %     mph   deg.    mph      in.     W/m2     F   
------------------------------------------------------------------------------
 344    2:30   21.8    70    8.3   289     12.9    99999.00   99999    99999.0
 344    2:40   21.6    70    7.6   278     12.5    99999.00   99999    99999.0
 344    2:50   21.2    70    7.3   287     13.3    99999.00   99999    99999.0
 344    3:00   20.9    71    6.5   278     12.5    99999.00   99999    99999.0
 344    3:10   20.8    74    6.0   278     10.3    99999.00   99999    99999.0
 344    3:20   20.6    79    7.4   287     12.5    99999.00   99999    99999.0
 344    3:30   20.4    82    5.5   284     10.8    99999.00   99999    99999.0
 344    3:40   20.2    86    6.3   282     11.2    99999.00   99999    99999.0
 344    3:50   20.1    89    6.6   280     11.6    99999.00   99999    99999.0
 344    4:00   20.0    92    5.6   271     10.3    99999.00   99999    99999.0
 344    4:10   20.0    93    4.3   271      7.8    99999.00   99999    99999.0
 344    4:20   20.0    93    5.6   287      9.1    99999.00   99999    99999.0
 344    4:30   20.0    93    4.8   306      9.5    99999.00   99999    99999.0
 344    4:40   20.1    93    5.1   301      8.6    99999.00   99999    99999.0
 344    4:50   20.1    93    5.8   298      8.6    99999.00   99999    99999.0
 344    5:00   20.1    92    4.3   295      6.1    99999.00   99999    99999.0
 344    5:10   20.2    91    4.0   286      6.5    99999.00   99999    99999.0
 344    5:20   20.2    91    2.8   278      5.2    99999.00   99999    99999.0
 344    5:30   20.1    91    4.0   278      7.8    99999.00   99999    99999.0
 344    5:40   20.1    90    3.6   280      7.4    99999.00   99999    99999.0
 344    5:50   20.0    90    2.7   282      6.1    99999.00   99999    99999.0
 344    6:00   19.8    90    2.3   282      4.4    99999.00   99999    99999.0
 344    6:10   19.9    90    2.9   282      5.2    99999.00   99999    99999.0
 344    6:20   20.3    90    4.6   293      7.8    99999.00   99999    99999.0
 344    6:30   20.6    90    4.8   309      8.6    99999.00   99999    99999.0
 344    6:40   20.6    89    6.6   311     11.6    99999.00   99999    99999.0
 344    6:50   20.4    90    7.0   312      9.5    99999.00   99999    99999.0
 344    7:00   20.8    89    5.4   312      8.2    99999.00   99999    99999.0
 344    7:10   21.1    88    0.6   312      3.5    99999.00   99999    99999.0
 344    7:20   21.6    88    3.3   315      5.2    99999.00   99999    99999.0
 344    7:30   22.4    86    3.0   328      5.7    99999.00   99999    99999.0
 344    7:40   23.4    82    3.8   337      6.5    99999.00   99999    99999.0
 344    7:50   23.2    82    3.0   347      6.1    99999.00   99999    99999.0
 344    8:00   23.0    82    6.6   326     10.3    99999.00   99999    99999.0
 344    8:10   23.2    82    5.5   348      9.9    99999.00   99999    99999.0
 344    8:20   23.4    81    8.6   339     14.6    99999.00   99999    99999.0
 344    8:30   23.3    80    9.8   340     23.1    99999.00   99999    99999.0
 344    8:40   23.6    78   15.8   326     28.3    99999.00   99999    99999.0
 344    8:50   24.4    75   16.8   323     24.4    99999.00   99999    99999.0
 344    9:00   24.8    74   15.6   325     21.4    99999.00   99999    99999.0
 344    9:10   25.0    73   13.2   327     18.0    99999.00   99999    99999.0
 344    9:20   25.5    71   10.9   327     15.0    99999.00   99999    99999.0
 344    9:30   25.9    70    8.6   329     13.3    99999.00   99999    99999.0
 344    9:40   26.5    67   11.0   328     17.2    99999.00   99999    99999.0
 344    9:50   27.0    65    9.7   333     14.6    99999.00   99999    99999.0
 344   10:00   27.4    64   11.5   328     20.6    99999.00   99999    99999.0
 344   10:10   27.6    63   11.6   327     18.5    99999.00   99999    99999.0
 344   10:20   28.1    61    8.6   324     13.8    99999.00   99999    99999.0
 344   10:30   28.4    61   11.2   322     15.9    99999.00   99999    99999.0
 344   10:40   28.8    59   11.1   318     17.2    99999.00   99999    99999.0
 344   10:50   29.2    57   11.2   317     18.5    99999.00   99999    99999.0
 344   11:00   29.6    56   11.0   313     18.0    99999.00   99999    99999.0
 344   11:10   30.1    53   11.0   313     18.9    99999.00   99999    99999.0
 344   11:20   30.2    52   11.3   315     18.9    99999.00   99999    99999.0
 344   11:30   30.5    51   11.3   304     16.8    99999.00   99999    99999.0
 344   11:40   31.1    50    9.7   304     16.3    99999.00   99999    99999.0
 344   11:50   31.5    49   10.4   301     15.9    99999.00   99999    99999.0
 344   12:00   31.9    47   10.2   292     19.3    99999.00   99999    99999.0
 344   12:10   31.8    45   13.0   300     22.3    99999.00   99999    99999.0
 344   12:20   31.7    45   13.0   302     20.6    99999.00   99999    99999.0
 344   12:30   31.7    45   13.9   308     23.1    99999.00   99999    99999.0
 344   12:40   32.1    44   13.3   300     21.4    99999.00   99999    99999.0
 344   12:50   32.1    44   14.2   302     22.7    99999.00   99999    99999.0
 344   13:00   32.3    43   11.9   306     18.9    99999.00   99999    99999.0
 344   13:10   32.7    42   12.1   292     18.9    99999.00   99999    99999.0
 344   13:20   32.5    42   14.5   307     20.2    99999.00   99999    99999.0
 344   13:30   32.7    42   10.0   314     15.9    99999.00   99999    99999.0
 344   13:40   32.7    42   12.0   304     19.3    99999.00   99999    99999.0
 344   13:50   32.7    42   12.4   298     20.2    99999.00   99999    99999.0
 344   14:00   33.0    42   12.6   301     18.5    99999.00   99999    99999.0
 344   14:10   33.3    42   12.6   303     19.7    99999.00   99999    99999.0
 344   14:20   33.0    43   14.2   312     24.4    99999.00   99999    99999.0
 344   14:30   32.5    44   13.6   307     23.1    99999.00   99999    99999.0
 344   14:40   32.8    43    9.8   299     16.8    99999.00   99999    99999.0
 344   14:50   33.2    42   10.5   304     18.9    99999.00   99999    99999.0
 344   15:00   33.4    42   12.0   311     19.3    99999.00   99999    99999.0
 344   15:10   33.6    41    8.0   313     12.9    99999.00   99999    99999.0
 344   15:20   33.5    41   10.5   309     17.6    99999.00   99999    99999.0
 344   15:30   33.3    41   10.3   305     16.3    99999.00   99999    99999.0
 344   15:40   34.0    40    7.8   286     13.3    99999.00   99999    99999.0
 344   15:50   33.8    40    9.1   296     15.9    99999.00   99999    99999.0
 344   16:00   33.9    40    7.9   293     14.2    99999.00   99999    99999.0
 344   16:10   33.8    40    6.9   282     12.1    99999.00   99999    99999.0
 344   16:20   33.0    42    8.9   289     13.3    99999.00   99999    99999.0
 344   16:30   32.5    44    7.9   290     13.3    99999.00   99999    99999.0
 344   16:40   31.8    46    7.7   299     11.2    99999.00   99999    99999.0
 344   16:50   31.3    48    4.8   259      8.6    99999.00   99999    99999.0
 344   17:00   30.3    54    0.0   262      3.1    99999.00   99999    99999.0
 344   17:10   29.3    58    1.1   262      5.2    99999.00   99999    99999.0
 344   17:20   28.5    60    1.2   261      5.7    99999.00   99999    99999.0
 344   17:30   28.0    62    0.9   261      3.9    99999.00   99999    99999.0
 344   17:40   27.6    64    2.4   261      5.7    99999.00   99999    99999.0
 344   17:50   27.1    64    0.0     0      0.0    99999.00   99999    99999.0
 344   18:00   26.9    66    1.9   261      4.8    99999.00   99999    99999.0
 344   18:10   26.6    66    3.4   256      6.1    99999.00   99999    99999.0
 344   18:20   26.3    67    4.3   244      6.9    99999.00   99999    99999.0
 344   18:30   26.1    68    4.3   245      7.4    99999.00   99999    99999.0
 344   18:40   26.0    69    4.8   262      9.1    99999.00   99999    99999.0
 344   18:50   26.0    71    4.7   263      8.6    99999.00   99999    99999.0
 344   19:00   25.9    72    5.8   275      8.6    99999.00   99999    99999.0
 344   19:10   25.9    71    6.0   267      9.9    99999.00   99999    99999.0
 344   19:20   26.0    70    8.2   286     13.3    99999.00   99999    99999.0
 344   19:30   26.0    71    8.2   292     12.5    99999.00   99999    99999.0
 344   19:40   25.8    72   10.0   299     13.8    99999.00   99999    99999.0
 344   19:50   25.9    72   12.5   305     18.0    99999.00   99999    99999.0
 344   20:00   26.1    71    9.7   298     16.8    99999.00   99999    99999.0
 344   20:10   25.5    74    8.6   314     12.1    99999.00   99999    99999.0
 344   20:20   25.7    72    7.6   314      9.9    99999.00   99999    99999.0
 344   20:30   26.6    64    7.7   316     10.3    99999.00   99999    99999.0
 344   20:40   26.9    62    8.1   307     11.2    99999.00   99999    99999.0
 344   20:50   26.8    63    8.8   302     12.1    99999.00   99999    99999.0
 344   21:00   27.0    63    8.4   298     11.6    99999.00   99999    99999.0
 344   21:10   27.0    64    7.6   302     11.2    99999.00   99999    99999.0
 344   21:20   26.9    65    8.6   301     12.5    99999.00   99999    99999.0
 344   21:30   27.1    63    7.9   295     10.3    99999.00   99999    99999.0
 344   21:40   27.1    62    7.7   293     12.1    99999.00   99999    99999.0
 344   21:50   27.2    63    7.2   295     10.3    99999.00   99999    99999.0
 344   22:00   26.9    66    6.7   287      9.1    99999.00   99999    99999.0
 344   22:10   27.0    67    7.9   302     10.8    99999.00   99999    99999.0
 344   22:20   26.9    66    9.5   306     12.9    99999.00   99999    99999.0
 344   22:30   27.2    63    7.9   286     11.2    99999.00   99999    99999.0
 344   22:40   27.6    59    8.0   284     13.3    99999.00   99999    99999.0
 344   22:50   28.0    58    9.9   293     15.5    99999.00   99999    99999.0
 344   23:00   28.0    58   10.7   298     15.0    99999.00   99999    99999.0
 344   23:10   28.1    59   12.3   302     17.6    99999.00   99999    99999.0
 344   23:20   28.2    57   12.9   312     18.0    99999.00   99999    99999.0
 344   23:30   28.4    56   10.9   307     15.9    99999.00   99999    99999.0
 344   23:40   28.6    56   12.1   312     17.6    99999.00   99999    99999.0
 344   23:50   28.5    56    9.9   311     17.2    99999.00   99999    99999.0
 345    0:00   28.4    57    9.3   317     13.8    99999.00   99999    99999.0
 345    0:10   28.6    56   10.5   307     14.6    99999.00   99999    99999.0
 345    0:20   28.4    56    9.1   319     13.8    99999.00   99999    99999.0
 345    0:30   28.3    57    9.5   316     12.9    99999.00   99999    99999.0
 345    0:40   28.2    57    8.7   301     11.6    99999.00   99999    99999.0
 345    0:50   28.1    57    9.6   318     13.3    99999.00   99999    99999.0
 345    1:00   28.2    56    8.7   317     11.6    99999.00   99999    99999.0
 345    1:10   28.1    57    8.6   318     12.1    99999.00   99999    99999.0
 345    1:20   28.1    58    8.7   320     11.2    99999.00   99999    99999.0
 345    1:30   27.9    58    9.8   307     12.5    99999.00   99999    99999.0
 345    1:40   28.1    57    8.0   315     12.5    99999.00   99999    99999.0
 345    1:50   28.3    56    8.0   318     12.5    99999.00   99999    99999.0
 345    2:00   28.8    53    9.1   334     15.0    99999.00   99999    99999.0
 345    2:10   29.0    52    7.4   312     13.8    99999.00   99999    99999.0
 345    2:20   29.1    52    5.8   325     12.1    99999.00   99999    99999.0

Return to Durango Ski Resort, Colorado graphs page.


Western Regional Climate Center,wrcc@dri.edu